CheckWX is a tool to help pilots better visualize weather data.  It is not intended as a substitute for an official pre-flight weather briefing.

09:28:57 UTC

KPKB METAR
Mid-Ohio Valley Regional Airport
Parkersburg, West Virginia, USA
Current

36 mins ago

KPKB 200853Z AUTO 08010KT 4SM -FZRA BR OVC039 M01/M02 A3030 RMK AO2 UPB0757E02FZRAE0757B02 PRESFR SLP266 P0005 60010 I1004 I3005 T10061022 58034
Observed
Feb-20 @ 08:53 UTC
Wind
  • 080° at 10 KTS
Visibility
6,437 meters
Flight Rules
MVFR
Conditions
Light Freezing Light Rain, Mist
Cloud Levels
  • Overcast at 3,900' AGL
Temperature
-1°C / 30°F
Dewpoint
-2°C / 28°F
Humidity
93%
Altimeter
30.3" Hg
Pressure
1026.6 hPa
Current Rain
0.05"
Previous

2 hours ago

KPKB 200753Z AUTO 06005KT 6SM -FZRA OVC035 00/M03 A3035 RMK AO2 RAE0658UPB0658E02B32E37FZRAB02E32B37 SLP284 P0004 I1001 T00001033
Observed
Feb-20 @ 07:53 UTC
Wind
  • 060° at 5 KTS
Visibility
9,656 meters
Flight Rules
VFR
Conditions
Light Freezing Light Rain
Cloud Levels
  • Overcast at 3,500' AGL
Temperature
C / 32°F
Dewpoint
-3°C / 27°F
Humidity
80%
Altimeter
30.35" Hg
Pressure
1028.4 hPa
Current Rain
0.04"
Previous

2 hours ago

KPKB 200708Z AUTO 07004KT 7SM -FZRA OVC037 00/M04 A3038 RMK AO2 RAE0658UPB0658E02FZRAB02 P0001 I1001 T00001044
Observed
Feb-20 @ 07:08 UTC
Wind
  • 070° at 4 KTS
Visibility
11,265 meters
Flight Rules
VFR
Conditions
Light Freezing Light Rain
Cloud Levels
  • Overcast at 3,700' AGL
Temperature
C / 32°F
Dewpoint
-4°C / 25°F
Humidity
75%
Altimeter
30.38" Hg
Pressure
1028.81 hPa
Current Rain
0.01"